Time;durP1;ratioP1;P1;durP2;ratioP2;P2;SDS_P1;SDS_P2;PMS_P1;PMS_P2;Temp;Humidity;BMP_temperature;BMP_pressure;BME280_temperature;BME280_humidity;BME280_pressure;Samples;Min_cycle;Max_cycle;Signal;HPM_P1;HPM_P2
2022/12/27 00:05:20;;;;;;;1.92;0.50;;;;;;;19.08;39.43;102204.34;16123451;19;130930;-49
2022/12/27 00:10:42;;;;;;;2.08;0.60;;;;;;;19.06;39.53;102198.19;16127095;19;130374;-50
2022/12/27 00:16:06;;;;;;;1.88;0.80;;;;;;;19.05;39.64;102202.03;16124608;19;129686;-48
2022/12/27 00:21:28;;;;;;;1.55;0.52;;;;;;;19.03;39.54;102200.50;16123552;19;129951;-49
2022/12/27 00:26:50;;;;;;;3.03;0.70;;;;;;;19.00;39.64;102199.03;16126634;19;129919;-50
2022/12/27 00:32:12;;;;;;;1.60;0.60;;;;;;;18.98;39.32;102192.00;16118936;19;130861;-48
2022/12/27 00:37:34;;;;;;;2.63;0.50;;;;;;;18.97;39.39;102190.31;16124610;19;130677;-45
2022/12/27 00:42:55;;;;;;;1.58;0.57;;;;;;;18.96;39.26;102199.69;16124740;19;130691;-53
2022/12/27 00:48:17;;;;;;;2.63;0.60;;;;;;;18.93;39.49;102212.09;16122278;19;132133;-49
2022/12/27 00:53:39;;;;;;;1.80;0.52;;;;;;;18.89;39.72;102210.81;16123887;19;129373;-52
2022/12/27 00:59:03;;;;;;;1.48;0.50;;;;;;;18.88;39.67;102225.72;16123437;19;129715;-51
2022/12/27 01:04:25;;;;;;;1.20;0.50;;;;;;;18.85;39.71;102235.34;16119459;19;129487;-46
2022/12/27 01:09:47;;;;;;;1.55;0.50;;;;;;;18.84;39.24;102236.41;16123394;19;130831;-47
2022/12/27 01:15:09;;;;;;;2.00;0.65;;;;;;;18.83;39.26;102244.94;16122552;19;131380;-46
2022/12/27 01:20:31;;;;;;;1.23;0.50;;;;;;;18.80;39.50;102242.59;16119051;19;130078;-46
2022/12/27 01:26:00;;;;;;;1.52;0.50;;;;;;;18.81;39.28;102247.09;16122648;19;130150;-46
2022/12/27 01:31:26;;;;;;;1.63;0.70;;;;;;;18.76;39.57;102251.34;16118305;19;131692;-51
2022/12/27 01:36:49;;;;;;;1.38;0.45;;;;;;;18.74;39.67;102264.56;16121906;19;130901;-45
2022/12/27 01:48:11;;;;;;;1.80;0.40;;;;;;;18.73;39.13;102281.41;16120038;19;129931;-48
2022/12/27 01:53:40;;;;;;;1.55;0.60;;;;;;;18.70;39.61;102292.94;16118962;19;129652;-49
2022/12/27 01:59:06;;;;;;;1.48;0.65;;;;;;;18.69;39.21;102294.88;16121612;19;136637;-51
2022/12/27 02:04:30;;;;;;;0.85;0.43;;;;;;;18.68;39.55;102300.59;16115872;19;129771;-51
2022/12/27 02:09:56;;;;;;;2.53;0.77;;;;;;;18.65;39.40;102298.25;16115438;19;130457;-52
2022/12/27 02:15:17;;;;;;;1.70;0.50;;;;;;;18.63;39.54;102301.25;16117905;19;129896;-47
2022/12/27 02:21:37;;;;;;;2.97;0.63;;;;;;;18.64;39.05;102313.19;16117378;19;129393;-46
2022/12/27 02:27:31;;;;;;;1.38;0.52;;;;;;;18.60;39.29;102307.22;16111427;19;129837;-49
2022/12/27 02:32:59;;;;;;;1.02;0.60;;;;;;;18.57;39.24;102307.66;16109807;19;129773;-50
2022/12/27 02:38:34;;;;;;;1.17;0.50;;;;;;;18.57;39.39;102318.75;16106825;19;130780;-49
2022/12/27 03:08:21;;;;;;;1.15;0.50;;;;;;;18.50;39.18;102321.50;16121653;19;130109;-50
2022/12/27 03:25:28;;;;;;;1.77;0.57;;;;;;;18.44;39.50;102325.97;16119864;19;131788;-50
2022/12/27 03:48:05;;;;;;;1.17;0.40;;;;;;;18.38;39.43;102335.09;16129904;19;129849;-47
2022/12/27 03:53:43;;;;;;;0.80;0.30;;;;;;;18.38;39.39;102323.16;16126388;19;129818;-48
2022/12/27 03:59:06;;;;;;;0.93;0.40;;;;;;;18.35;39.16;102332.72;16126006;19;130715;-50
2022/12/27 04:04:28;;;;;;;0.63;0.30;;;;;;;18.36;39.07;102356.59;16118566;19;130947;-48
2022/12/27 04:38:11;;;;;;;1.33;0.47;;;;;;;18.26;39.21;102353.38;16123881;19;130167;-47
2022/12/27 04:55:10;;;;;;;1.58;0.50;;;;;;;18.24;38.91;102358.28;16121805;19;131182;-47
2022/12/27 05:06:13;;;;;;;1.30;0.63;;;;;;;18.20;38.94;102368.09;16122746;19;130429;-50
2022/12/27 05:17:15;;;;;;;1.25;0.60;;;;;;;18.18;39.14;102370.19;16123511;19;130908;-46
2022/12/27 05:28:17;;;;;;;0.82;0.50;;;;;;;18.15;39.33;102366.78;16122038;19;136124;-46
2022/12/27 05:33:39;;;;;;;1.58;0.50;;;;;;;18.14;38.96;102359.53;16119861;19;129926;-47
2022/12/27 05:39:00;;;;;;;1.70;0.45;;;;;;;18.13;39.20;102368.06;16123532;19;130192;-49
2022/12/27 05:44:22;;;;;;;1.52;0.50;;;;;;;18.12;39.26;102378.25;16120689;19;131710;-48
2022/12/27 05:49:44;;;;;;;2.95;0.45;;;;;;;18.11;39.17;102382.09;16119308;19;130166;-46
2022/12/27 05:55:06;;;;;;;1.52;0.60;;;;;;;18.10;39.28;102382.31;16118147;19;130442;-50
2022/12/27 06:00:28;;;;;;;1.38;0.30;;;;;;;18.10;39.21;102377.63;16117873;19;129735;-49
2022/12/27 06:05:50;;;;;;;0.80;0.40;;;;;;;18.09;39.19;102367.59;16116386;19;129704;-45
2022/12/27 06:11:14;;;;;;;1.67;0.60;;;;;;;18.10;39.09;102374.00;16116452;19;130115;-51
2022/12/27 06:16:35;;;;;;;1.10;0.50;;;;;;;18.08;39.16;102377.00;16120202;19;129614;-49
2022/12/27 06:21:57;;;;;;;1.98;0.40;;;;;;;18.10;39.04;102379.53;16118727;19;130941;-50
2022/12/27 06:27:19;;;;;;;0.82;0.38;;;;;;;18.10;38.96;102388.69;16115888;19;130813;-49
2022/12/27 06:32:41;;;;;;;2.97;0.50;;;;;;;18.10;38.77;102391.47;16117270;19;130315;-46
2022/12/27 06:38:02;;;;;;;1.52;0.60;;;;;;;18.10;38.76;102387.84;16114903;19;130521;-47
2022/12/27 06:43:24;;;;;;;1.40;0.60;;;;;;;18.09;39.16;102392.53;16115540;19;129486;-48
2022/12/27 06:48:46;;;;;;;5.50;0.60;;;;;;;18.08;38.80;102388.06;16117253;19;129802;-46
2022/12/27 06:54:08;;;;;;;2.50;0.40;;;;;;;18.08;38.73;102395.50;16115546;19;129885;-48
2022/12/27 06:59:30;;;;;;;2.70;0.55;;;;;;;18.07;38.85;102419.59;16116327;19;130548;-52
2022/12/27 07:04:52;;;;;;;1.98;0.70;;;;;;;18.05;39.04;102413.41;16111930;19;130318;-46
2022/12/27 07:10:13;;;;;;;2.67;0.75;;;;;;;18.05;38.60;102432.78;16114810;19;129979;-46
2022/12/27 07:15:37;;;;;;;3.80;0.80;;;;;;;18.03;38.45;102423.81;16113751;19;130155;-48
2022/12/27 07:21:07;;;;;;;3.83;0.93;;;;;;;18.04;38.53;102436.63;16114479;19;129392;-49
2022/12/27 07:26:29;;;;;;;6.53;0.80;;;;;;;18.00;38.75;102427.88;16111185;19;129010;-50
2022/12/27 07:31:51;;;;;;;3.20;1.05;;;;;;;17.98;38.49;102431.88;16109116;19;129100;-49
2022/12/27 07:37:13;;;;;;;3.00;0.90;;;;;;;17.98;38.73;102438.28;16110656;19;129574;-50
2022/12/27 07:42:35;;;;;;;4.57;0.98;;;;;;;17.95;38.49;102427.63;16121200;19;130409;-49
2022/12/27 07:47:56;;;;;;;3.83;1.13;;;;;;;17.94;38.57;102441.69;16129266;19;131318;-49
2022/12/27 07:53:18;;;;;;;1.70;0.60;;;;;;;17.93;38.94;102439.97;16127396;19;130007;-47
2022/12/27 07:58:45;;;;;;;3.13;0.98;;;;;;;17.92;38.89;102441.03;16128332;19;130679;-49
2022/12/27 08:04:07;;;;;;;4.22;0.70;;;;;;;17.91;38.67;102447.63;16128161;19;132278;-47
2022/12/27 08:09:32;;;;;;;4.00;1.10;;;;;;;17.92;38.88;102443.78;16121772;19;130623;-53
2022/12/27 08:14:54;;;;;;;3.13;0.85;;;;;;;17.92;38.43;102443.78;16127619;19;130380;-49
2022/12/27 08:20:16;;;;;;;1.30;0.68;;;;;;;17.96;38.42;102439.56;16125423;19;129637;-48
2022/12/27 08:25:38;;;;;;;2.00;0.65;;;;;;;17.98;38.49;102449.38;16125982;19;129924;-46
2022/12/27 08:31:11;;;;;;;3.22;0.80;;;;;;;18.02;38.38;102448.97;16126169;19;129927;-48
2022/12/27 08:36:33;;;;;;;1.70;0.60;;;;;;;18.02;38.44;102449.81;16126892;19;130001;-47
2022/12/27 08:42:14;;;;;;;1.17;0.60;;;;;;;18.03;38.66;102456.22;16121512;19;129556;-45
2022/12/27 08:47:36;;;;;;;1.73;0.50;;;;;;;18.03;38.45;102448.75;16126911;19;129862;-47
2022/12/27 08:53:00;;;;;;;1.50;0.70;;;;;;;18.04;38.58;102446.81;16125118;19;130031;-51
2022/12/27 08:58:22;;;;;;;2.22;0.52;;;;;;;18.03;38.56;102439.59;16125946;19;129876;-52
2022/12/27 09:03:44;;;;;;;1.17;0.50;;;;;;;18.03;38.32;102445.13;16125474;19;130265;-46
2022/12/27 09:09:06;;;;;;;1.98;0.50;;;;;;;18.03;38.65;102448.75;16124359;19;129956;-50
2022/12/27 09:14:27;;;;;;;2.45;0.50;;;;;;;18.03;38.79;102454.28;16120943;19;129397;-48
2022/12/27 09:19:49;;;;;;;1.63;0.63;;;;;;;18.03;38.53;102458.97;16124267;19;130217;-52
2022/12/27 09:25:11;;;;;;;2.28;0.57;;;;;;;18.02;38.43;102452.56;16130461;19;128831;-48
2022/12/27 09:30:33;;;;;;;0.73;0.60;;;;;;;18.02;38.75;102460.88;16125828;19;130414;-50
2022/12/27 09:36:06;;;;;;;1.10;0.50;;;;;;;18.03;38.36;102453.44;16126449;19;129477;-51
2022/12/27 09:41:42;;;;;;;0.88;0.45;;;;;;;18.01;38.59;102445.31;16120187;19;130261;-50
2022/12/27 09:47:42;;;;;;;1.92;0.60;;;;;;;17.98;38.64;102446.59;16120179;19;129971;-50
2022/12/27 09:53:16;;;;;;;1.33;0.60;;;;;;;17.98;38.66;102459.56;16122194;19;129865;-49
2022/12/27 09:58:53;;;;;;;1.45;0.60;;;;;;;17.99;38.77;102466.81;16124283;19;130154;-49
2022/12/27 10:04:17;;;;;;;1.58;0.52;;;;;;;17.96;38.63;102467.25;16119963;19;130736;-47
2022/12/27 10:09:44;;;;;;;4.03;0.90;;;;;;;17.96;38.90;102461.72;16121608;19;129751;-46
2022/12/27 10:15:19;;;;;;;2.03;0.52;;;;;;;17.97;38.86;102463.44;16120843;19;131722;-50
2022/12/27 10:20:53;;;;;;;2.55;0.60;;;;;;;17.94;38.58;102461.06;16120930;19;129153;-49
2022/12/27 10:26:17;;;;;;;2.50;0.55;;;;;;;17.92;38.77;102455.72;16118329;19;129975;-47
2022/12/27 10:31:42;;;;;;;5.15;0.57;;;;;;;17.93;38.93;102462.13;16118101;19;130622;-48
2022/12/27 10:37:04;;;;;;;3.17;0.40;;;;;;;17.93;38.76;102459.34;16110369;19;129396;-50
2022/12/27 10:42:32;;;;;;;1.50;0.60;;;;;;;17.94;38.44;102447.22;16114626;19;129524;-51
2022/12/27 10:47:57;;;;;;;1.40;0.50;;;;;;;17.95;38.40;102454.47;16115352;19;129604;-52
2022/12/27 10:53:36;;;;;;;3.40;0.70;;;;;;;17.96;38.69;102464.47;16115651;19;129433;-47
2022/12/27 10:59:19;;;;;;;1.30;0.60;;;;;;;17.95;38.34;102460.84;16119022;19;129758;-48
2022/12/27 11:04:58;;;;;;;1.10;0.60;;;;;;;17.95;38.50;102468.31;16114398;19;131206;-50
2022/12/27 11:10:22;;;;;;;1.75;0.60;;;;;;;17.92;38.58;102465.94;16115258;19;130205;-51
2022/12/27 11:15:54;;;;;;;3.63;0.65;;;;;;;17.90;38.35;102468.94;16121259;19;129910;-50
2022/12/27 11:21:19;;;;;;;1.10;0.68;;;;;;;17.91;38.41;102472.53;16128842;19;131167;-47
2022/12/27 11:26:53;;;;;;;4.05;0.52;;;;;;;17.92;37.92;102468.72;16120608;19;130044;-50
2022/12/27 11:32:15;;;;;;;5.60;0.98;;;;;;;17.93;37.85;102467.66;16121441;19;129774;-51
2022/12/27 11:37:38;;;;;;;5.35;1.20;;;;;;;17.96;37.76;102470.03;16115531;19;131321;-55
2022/12/27 11:43:08;;;;;;;7.50;1.10;;;;;;;17.96;37.27;102445.09;16126264;19;130385;-56
2022/12/27 11:48:39;;;;;;;4.18;0.80;;;;;;;17.94;37.33;102438.91;16129921;19;129536;-53
2022/12/27 11:54:41;;;;;;;5.43;1.05;;;;;;;17.91;37.25;102431.84;16130260;19;129921;-54
2022/12/27 12:00:15;;;;;;;5.53;0.90;;;;;;;17.87;37.63;102429.69;16130770;19;131770;-53
2022/12/27 12:06:09;;;;;;;4.28;0.80;;;;;;;17.82;37.49;102422.88;16132241;19;130007;-51
2022/12/27 12:12:20;;;;;;;3.45;0.82;;;;;;;17.82;37.68;102413.69;16116859;19;129940;-50
2022/12/27 12:18:12;;;;;;;2.30;0.90;;;;;;;17.81;38.01;102398.16;16122231;19;130095;-49
2022/12/27 12:24:01;;;;;;;4.72;0.68;;;;;;;17.78;38.09;102393.88;16118523;19;130402;-49
2022/12/27 12:29:53;;;;;;;1.58;0.63;;;;;;;17.78;37.98;102396.66;16114816;19;129447;-45
2022/12/27 12:35:47;;;;;;;4.72;0.60;;;;;;;17.76;37.70;102384.91;16115798;19;129469;-48
2022/12/27 12:41:42;;;;;;;2.10;0.70;;;;;;;17.75;37.96;102380.44;16116497;19;130367;-46
2022/12/27 12:47:18;;;;;;;2.67;0.73;;;;;;;17.73;38.24;102374.25;16124223;19;129750;-49
2022/12/27 12:53:01;;;;;;;1.20;0.53;;;;;;;17.74;38.21;102362.13;16126800;19;129947;-46
2022/12/27 12:58:48;;;;;;;2.08;0.50;;;;;;;17.73;37.88;102357.66;16121457;19;131075;-50
2022/12/27 13:04:38;;;;;;;1.58;0.40;;;;;;;17.71;37.86;102329.34;16124355;19;129840;-50
2022/12/27 13:10:12;;;;;;;5.85;0.60;;;;;;;17.70;38.14;102324.88;16123547;19;129695;-47
2022/12/27 13:15:52;;;;;;;2.45;0.40;;;;;;;17.68;38.07;102330.59;16124382;19;129338;-46
2022/12/27 13:21:46;;;;;;;1.70;0.45;;;;;;;17.71;38.02;102312.75;16122402;19;130169;-49
2022/12/27 13:27:08;;;;;;;2.03;0.32;;;;;;;17.69;38.27;102318.47;16122387;19;129695;-49
2022/12/27 13:32:45;;;;;;;0.95;0.47;;;;;;;17.70;38.46;102305.50;16120384;19;130119;-48
2022/12/27 13:38:22;;;;;;;3.03;0.73;;;;;;;17.70;38.03;102286.13;16119908;19;131944;-49
2022/12/27 13:44:09;;;;;;;1.70;0.60;;;;;;;17.70;38.01;102280.59;16122693;19;129664;-46
2022/12/27 13:49:48;;;;;;;8.60;0.52;;;;;;;17.69;38.11;102270.56;16120994;19;129545;-47
2022/12/27 13:55:48;;;;;;;1.48;0.50;;;;;;;17.68;38.12;102272.47;16119815;19;130691;-46
2022/12/27 14:01:44;;;;;;;1.27;0.35;;;;;;;17.67;38.51;102269.91;16120560;19;129065;-49
2022/12/27 14:07:24;;;;;;;1.40;0.27;;;;;;;17.65;38.45;102256.28;16118169;19;129836;-47
2022/12/27 14:12:57;;;;;;;1.33;0.40;;;;;;;17.66;38.31;102251.59;16120051;19;130083;-50
2022/12/27 14:18:36;;;;;;;1.52;0.40;;;;;;;17.65;38.49;102244.34;16120138;19;129093;-46
2022/12/27 14:24:07;;;;;;;1.00;0.35;;;;;;;17.65;38.59;102239.69;16119729;19;131577;-45
2022/12/27 14:30:04;;;;;;;1.42;0.43;;;;;;;17.66;38.22;102246.06;16118329;19;130166;-45
2022/12/27 14:36:03;;;;;;;0.68;0.40;;;;;;;17.65;38.28;102233.28;16118234;19;129998;-47
2022/12/27 14:42:03;;;;;;;0.55;0.25;;;;;;;17.63;38.20;102233.50;16111436;19;130579;-49
2022/12/27 14:47:50;;;;;;;2.47;0.57;;;;;;;17.64;38.67;102214.97;16106006;19;130347;-48
2022/12/27 14:53:28;;;;;;;4.43;0.90;;;;;;;17.69;37.96;102212.44;16128722;19;130630;-46
2022/12/27 14:59:20;;;;;;;9.35;1.17;;;;;;;17.74;38.08;102206.28;16133253;19;129598;-46
2022/12/27 15:04:57;;;;;;;3.25;1.10;;;;;;;17.75;38.11;102216.28;16138364;19;129867;-48
2022/12/27 15:10:46;;;;;;;5.95;1.23;;;;;;;17.77;37.63;102203.94;16132528;19;128994;-49
2022/12/27 15:16:26;;;;;;;3.10;1.10;;;;;;;17.77;37.35;102200.34;16130526;19;129630;-46
2022/12/27 15:22:17;;;;;;;4.80;0.98;;;;;;;17.79;37.43;102203.72;16130517;19;129839;-47
2022/12/27 15:27:46;;;;;;;6.85;1.00;;;;;;;17.79;37.19;102206.50;16130362;19;130729;-46
2022/12/27 15:33:17;;;;;;;4.72;0.93;;;;;;;17.81;37.30;102207.13;16128333;19;129850;-47
2022/12/27 15:38:49;;;;;;;3.85;0.90;;;;;;;17.82;36.76;102212.47;16134983;19;129609;-46
2022/12/27 15:44:24;;;;;;;;;;;;;;;17.78;36.67;102208.41;16131097;19;129504;-48
2022/12/27 15:49:59;;;;;;;4.95;1.20;;;;;;;17.83;37.08;102208.66;16129683;19;129025;-49
2022/12/27 15:55:58;;;;;;;1.92;1.00;;;;;;;17.81;36.72;102205.25;16130637;19;129404;-47
2022/12/27 16:01:27;;;;;;;2.53;0.60;;;;;;;17.80;36.99;102200.75;16122600;19;130592;-46
2022/12/27 16:06:50;;;;;;;5.68;1.17;;;;;;;17.78;37.03;102211.19;16128330;19;129259;-51
2022/12/27 16:12:36;;;;;;;4.50;0.90;;;;;;;17.80;36.96;102195.22;16127879;19;129731;-49
2022/12/27 16:17:58;;;;;;;4.60;1.02;;;;;;;17.77;37.01;102189.25;16125646;19;130652;-46
2022/12/27 16:23:30;;;;;;;5.18;1.25;;;;;;;17.75;37.14;102189.47;16122833;19;129769;-51
2022/12/27 16:28:58;;;;;;;8.93;1.20;;;;;;;17.70;37.28;102194.78;16122139;19;130861;-51
2022/12/27 16:34:20;;;;;;;9.30;1.58;;;;;;;17.67;37.35;102186.88;16122743;19;129846;-48
2022/12/27 16:39:57;;;;;;;5.03;1.75;;;;;;;17.66;37.36;102187.94;16126644;19;128993;-49
2022/12/27 16:45:37;;;;;;;8.70;1.13;;;;;;;17.65;37.33;102180.72;16118870;19;130373;-49
2022/12/27 16:51:06;;;;;;;16.45;1.33;;;;;;;17.64;37.43;102176.22;16119488;19;130424;-46
2022/12/27 16:56:31;;;;;;;6.97;0.80;;;;;;;17.64;37.66;102181.75;16119010;19;129225;-45
2022/12/27 17:01:53;;;;;;;10.33;0.93;;;;;;;17.62;37.84;102173.69;16120641;19;130439;-49
2022/12/27 17:07:52;;;;;;;5.65;1.15;;;;;;;17.62;37.74;102167.28;16118803;19;130411;-50
2022/12/27 17:13:20;;;;;;;4.25;0.90;;;;;;;17.58;37.92;102166.00;16122821;19;129216;-48
2022/12/27 17:18:46;;;;;;;3.83;0.98;;;;;;;17.54;37.85;102171.97;16122884;19;129175;-48
2022/12/27 17:24:17;;;;;;;6.75;0.98;;;;;;;17.54;37.86;102163.66;16123950;19;129506;-46
2022/12/27 17:29:46;;;;;;;4.75;0.88;;;;;;;17.52;37.92;102160.22;16121006;19;129876;-47
2022/12/27 17:35:27;;;;;;;3.50;0.70;;;;;;;17.52;37.83;102162.97;16116757;19;129159;-53
2022/12/27 17:47:27;;;;;;;2.53;1.00;;;;;;;17.50;38.00;102161.47;16119321;19;130229;-48
2022/12/27 17:58:49;;;;;;;6.00;1.33;;;;;;;17.50;38.01;102137.44;16117953;19;130475;-50
2022/12/27 18:04:29;;;;;;;5.60;1.27;;;;;;;17.52;38.18;102132.53;16114622;19;129196;-48
2022/12/27 18:09:57;;;;;;;7.63;1.35;;;;;;;17.56;38.70;102123.84;16118971;19;131674;-48
2022/12/27 18:15:24;;;;;;;9.02;1.55;;;;;;;17.81;38.67;102122.19;16117740;19;130064;-46
2022/12/27 18:20:53;;;;;;;36.53;2.58;;;;;;;18.28;38.24;102113.84;16120012;19;131278;-45
2022/12/27 18:26:15;;;;;;;43.95;2.90;;;;;;;18.81;38.09;102105.69;16116580;19;129489;-46
2022/12/27 18:31:47;;;;;;;22.73;2.60;;;;;;;19.28;37.49;102098.03;16118802;19;131641;-46
2022/12/27 18:37:15;;;;;;;16.67;1.73;;;;;;;19.73;37.14;102076.78;16116161;19;129212;-46
2022/12/27 18:42:43;;;;;;;21.23;2.20;;;;;;;20.11;36.71;102078.63;16113600;19;129447;-45
2022/12/27 18:48:10;;;;;;;15.10;1.40;;;;;;;20.33;36.16;102078.19;16116763;19;131425;-50
2022/12/27 18:53:36;;;;;;;23.83;1.98;;;;;;;20.38;36.51;102078.38;16116076;19;130192;-51
2022/12/27 18:58:59;;;;;;;;;;;;;;;20.32;36.55;102069.03;16110323;19;132327;-47
2022/12/27 19:04:27;;;;;;;41.72;3.22;;;;;;;20.24;36.72;102063.78;16113689;19;130641;-45
2022/12/27 19:09:57;;;;;;;20.42;2.60;;;;;;;20.12;36.58;102058.09;16114110;19;130194;-47
2022/12/27 19:15:26;;;;;;;29.08;2.20;;;;;;;19.97;36.64;102042.59;16114301;19;129621;-49
2022/12/27 19:20:53;;;;;;;19.67;1.98;;;;;;;19.83;37.64;102032.69;16115217;19;130227;-47
2022/12/27 19:26:15;;;;;;;19.75;3.13;;;;;;;19.73;37.57;102030.47;16112938;19;129320;-48
2022/12/27 19:31:40;;;;;;;15.27;1.90;;;;;;;19.69;37.43;102010.59;16112110;19;129420;-48
2022/12/27 19:37:02;;;;;;;;;;;;;;;19.69;37.71;102009.78;16119002;19;135710;-49
2022/12/27 19:42:30;;;;;;;20.45;2.13;;;;;;;19.92;37.13;102002.72;16123116;19;130200;-49
2022/12/27 19:47:53;;;;;;;14.13;1.40;;;;;;;20.18;37.24;101993.31;16126555;19;129805;-52
2022/12/27 19:53:18;;;;;;;11.35;1.38;;;;;;;20.45;36.69;101985.50;16126141;19;130062;-48
2022/12/27 19:58:40;;;;;;;24.83;1.80;;;;;;;20.71;36.34;101977.00;16127655;19;130411;-49
2022/12/27 20:04:01;;;;;;;10.10;1.52;;;;;;;20.93;35.93;101970.97;16126730;19;129095;-51
2022/12/27 20:09:23;;;;;;;11.95;1.52;;;;;;;21.09;36.00;101978.63;16124011;19;129691;-50
2022/12/27 20:14:46;;;;;;;4.78;1.17;;;;;;;21.21;35.45;101962.00;16123671;19;130188;-45
2022/12/27 20:20:09;;;;;;;3.92;1.10;;;;;;;21.33;35.16;101962.00;16127197;19;129937;-48
2022/12/27 20:25:31;;;;;;;4.80;1.15;;;;;;;21.45;35.42;101943.38;16122794;19;131227;-52
2022/12/27 20:30:53;;;;;;;7.93;1.27;;;;;;;21.54;35.19;101938.31;16119759;19;130392;-48
2022/12/27 20:36:15;;;;;;;7.90;1.00;;;;;;;21.62;35.33;101929.59;16115475;19;130928;-47
2022/12/27 20:41:37;;;;;;;3.83;0.90;;;;;;;21.70;35.02;101911.69;16119446;19;129749;-48
2022/12/27 20:46:59;;;;;;;8.93;1.17;;;;;;;21.74;34.89;101898.97;16117266;19;129052;-46
2022/12/27 20:52:20;;;;;;;6.80;0.90;;;;;;;21.72;34.72;101892.78;16119229;19;130072;-49
2022/12/27 20:57:51;;;;;;;7.50;1.00;;;;;;;21.62;34.92;101884.22;16118517;19;130874;-49
2022/12/27 21:03:12;;;;;;;9.80;1.30;;;;;;;21.51;35.22;101872.84;16117313;19;128931;-49
2022/12/27 21:08:35;;;;;;;5.88;1.38;;;;;;;21.39;34.85;101871.97;16120601;19;130229;-50
2022/12/27 21:14:10;;;;;;;2.70;0.93;;;;;;;21.25;35.27;101859.38;16118311;19;129057;-48
2022/12/27 21:19:32;;;;;;;5.03;0.90;;;;;;;21.05;35.62;101855.84;16117333;19;129358;-50
2022/12/27 21:24:54;;;;;;;2.25;0.80;;;;;;;20.87;35.74;101856.81;16119254;19;130850;-48
2022/12/27 21:30:15;;;;;;;4.25;0.88;;;;;;;20.71;35.71;101860.22;16116745;19;129517;-49
2022/12/27 21:35:37;;;;;;;2.13;0.80;;;;;;;20.56;35.90;101850.41;16117948;19;130793;-50
2022/12/27 21:41:02;;;;;;;11.02;1.20;;;;;;;20.46;36.53;101836.22;16115224;19;130250;-49
2022/12/27 21:46:26;;;;;;;14.33;1.20;;;;;;;20.32;36.48;101835.59;16117407;19;131108;-46
2022/12/27 21:51:48;;;;;;;5.68;1.20;;;;;;;20.18;36.21;101823.81;16116599;19;129381;-50
2022/12/27 21:57:10;;;;;;;9.95;1.17;;;;;;;20.02;35.95;101825.28;16117435;19;129667;-48
2022/12/27 22:02:32;;;;;;;14.95;1.20;;;;;;;19.89;36.26;101819.88;16108073;19;130155;-47
2022/12/27 22:07:54;;;;;;;11.25;1.50;;;;;;;19.77;36.24;101805.94;16116417;19;130721;-48
2022/12/27 22:13:16;;;;;;;9.50;0.88;;;;;;;19.66;36.20;101783.44;16119392;19;129447;-46
2022/12/27 22:18:43;;;;;;;6.13;1.10;;;;;;;19.55;36.28;101770.34;16120770;19;130951;-48
2022/12/27 22:24:05;;;;;;;5.20;1.30;;;;;;;19.48;36.08;101764.00;16102787;19;130002;-49
2022/12/27 22:29:27;;;;;;;2.13;0.80;;;;;;;19.41;36.65;101760.47;16099317;19;132135;-50
2022/12/27 22:34:55;;;;;;;6.57;1.23;;;;;;;19.33;36.57;101756.06;16101946;19;130784;-48
2022/12/27 22:40:17;;;;;;;6.47;1.05;;;;;;;19.27;36.38;101734.78;16112395;19;133771;-48
2022/12/27 22:45:51;;;;;;;5.63;0.73;;;;;;;19.21;36.40;101711.59;16117488;19;129006;-48
2022/12/27 22:51:17;;;;;;;4.75;1.10;;;;;;;19.16;36.17;101680.91;16113514;19;129795;-48
2022/12/27 22:56:40;;;;;;;5.18;0.85;;;;;;;19.10;36.31;101679.91;16116492;19;129501;-48
2022/12/27 23:02:02;;;;;;;5.85;0.88;;;;;;;19.06;36.29;101682.31;16115717;19;130767;-50
2022/12/27 23:07:24;;;;;;;2.17;0.82;;;;;;;19.00;36.27;101669.34;16114924;19;130845;-50
2022/12/27 23:13:06;;;;;;;3.60;0.90;;;;;;;18.95;36.57;101663.66;16122981;19;129574;-45
2022/12/27 23:18:28;;;;;;;2.67;0.85;;;;;;;18.90;36.47;101658.78;16129659;19;130547;-48
2022/12/27 23:23:51;;;;;;;2.53;0.80;;;;;;;18.87;36.85;101658.41;16128430;19;130246;-51
2022/12/27 23:29:13;;;;;;;3.08;0.65;;;;;;;18.82;36.53;101656.34;16130083;19;131304;-44
2022/12/27 23:34:35;;;;;;;2.22;0.73;;;;;;;18.80;36.62;101652.09;16128100;19;130658;-48
2022/12/27 23:39:57;;;;;;;4.65;1.02;;;;;;;18.75;36.44;101642.53;16128907;19;131519;-51
2022/12/27 23:45:19;;;;;;;6.13;0.77;;;;;;;18.72;36.44;101623.59;16127941;19;130210;-47
2022/12/27 23:50:41;;;;;;;1.50;0.57;;;;;;;18.68;36.81;101605.75;16128344;19;130360;-45
2022/12/27 23:56:28;;;;;;;2.75;0.70;;;;;;;18.66;36.73;101599.59;16128684;19;130142;-48
